createdAt,value
2022-12-31T00:01:26.622Z,102077.00
2022-12-31T00:03:57.241Z,102075.55
2022-12-31T00:06:25.474Z,102071.17
2022-12-31T00:08:55.540Z,102070.80
2022-12-31T00:11:24.910Z,102073.68
2022-12-31T00:13:53.647Z,102077.12
2022-12-31T00:16:24.651Z,102079.55
2022-12-31T00:18:55.122Z,102085.80
2022-12-31T00:21:23.378Z,102087.86
2022-12-31T00:23:51.870Z,102093.90
2022-12-31T00:26:22.344Z,102096.02
2022-12-31T00:28:51.122Z,102098.66
2022-12-31T00:31:26.743Z,102095.02
2022-12-31T00:33:55.290Z,102097.55
2022-12-31T00:36:26.578Z,102095.53
2022-12-31T00:38:56.428Z,102101.08
2022-12-31T00:41:25.588Z,102102.75
2022-12-31T00:43:54.053Z,102104.16
2022-12-31T00:46:22.879Z,102106.20
2022-12-31T00:48:51.501Z,102106.35
2022-12-31T00:51:22.925Z,102103.24
2022-12-31T00:53:51.244Z,102106.57
2022-12-31T00:56:21.829Z,102111.34
2022-12-31T00:58:50.659Z,102111.42
2022-12-31T01:01:39.000Z,102111.18
2022-12-31T01:04:13.451Z,102110.75
2022-12-31T01:06:43.023Z,102112.13
2022-12-31T01:09:12.989Z,102111.86
2022-12-31T01:11:41.810Z,102116.70
2022-12-31T01:14:15.522Z,102115.98
2022-12-31T01:16:46.820Z,102117.53
2022-12-31T01:19:26.492Z,102117.66
2022-12-31T01:21:55.783Z,102124.24
2022-12-31T01:24:24.571Z,102123.01
2022-12-31T01:26:52.912Z,102116.85
2022-12-31T01:29:21.118Z,102121.58
2022-12-31T01:31:49.424Z,102122.81
2022-12-31T01:34:17.729Z,102120.16
2022-12-31T01:36:45.981Z,102122.11
2022-12-31T01:39:14.289Z,102126.68
2022-12-31T01:41:44.676Z,102122.93
2022-12-31T01:44:12.871Z,102122.64
2022-12-31T01:46:47.025Z,102122.51
2022-12-31T01:49:38.895Z,102125.96
2022-12-31T01:52:09.425Z,102121.16
2022-12-31T01:54:48.867Z,102125.66
2022-12-31T01:57:17.634Z,102128.94
2022-12-31T01:59:46.024Z,102126.66
2022-12-31T02:02:15.649Z,102130.47
2022-12-31T02:04:44.067Z,102133.23
2022-12-31T02:07:12.818Z,102134.30
2022-12-31T02:09:42.477Z,102137.39
2022-12-31T02:12:11.309Z,102135.73
2022-12-31T02:14:43.222Z,102134.40
2022-12-31T02:17:23.506Z,102141.73
2022-12-31T02:20:14.022Z,102139.84
2022-12-31T02:23:04.259Z,102133.81
2022-12-31T02:25:44.015Z,102132.30
2022-12-31T02:28:30.959Z,102134.98
2022-12-31T02:31:18.882Z,102138.04
2022-12-31T02:33:58.730Z,102137.67
2022-12-31T02:36:32.759Z,102142.36
2022-12-31T02:39:02.202Z,102133.40
2022-12-31T02:41:48.856Z,102127.77
2022-12-31T02:44:30.378Z,102125.40
2022-12-31T02:47:13.911Z,102125.69
2022-12-31T02:50:17.845Z,102130.12
2022-12-31T02:52:59.138Z,102131.07
2022-12-31T02:55:56.471Z,102131.09
2022-12-31T02:58:54.007Z,102134.43
2022-12-31T03:01:47.097Z,102134.24
2022-12-31T03:04:32.436Z,102138.24
2022-12-31T03:07:04.392Z,102132.46
2022-12-31T03:09:33.065Z,102129.97
2022-12-31T03:12:20.690Z,102130.73
2022-12-31T03:14:49.279Z,102127.98
2022-12-31T03:17:17.677Z,102126.12
2022-12-31T03:20:04.605Z,102128.84
2022-12-31T03:22:36.517Z,102125.52
2022-12-31T03:25:27.120Z,102122.33
2022-12-31T03:27:55.484Z,102124.62
2022-12-31T03:30:24.670Z,102129.96
2022-12-31T03:32:53.994Z,102130.38
2022-12-31T03:35:23.245Z,102133.43
2022-12-31T03:37:51.951Z,102133.83
2022-12-31T03:40:22.271Z,102134.22
2022-12-31T03:42:50.794Z,102134.52
2022-12-31T03:45:19.078Z,102131.95
2022-12-31T03:47:47.765Z,102133.37
2022-12-31T03:50:17.842Z,102132.13
2022-12-31T03:52:46.104Z,102137.01
2022-12-31T03:55:14.969Z,102138.36
2022-12-31T03:57:43.496Z,102141.19
2022-12-31T04:00:15.063Z,102137.21
2022-12-31T04:02:43.325Z,102138.19
2022-12-31T04:05:12.408Z,102133.34
2022-12-31T04:07:40.745Z,102137.44
2022-12-31T04:10:11.282Z,102135.91
2022-12-31T04:12:40.160Z,102140.84
2022-12-31T04:15:10.045Z,102145.34
2022-12-31T04:17:38.264Z,102156.21
2022-12-31T04:20:07.078Z,102165.46
2022-12-31T04:22:35.320Z,102163.01
2022-12-31T04:25:04.003Z,102167.63
2022-12-31T04:27:32.206Z,102160.75
2022-12-31T04:30:00.385Z,102163.26
2022-12-31T04:32:28.746Z,102167.48
2022-12-31T04:34:56.986Z,102173.62
2022-12-31T04:37:25.212Z,102176.20
2022-12-31T04:39:53.493Z,102177.81
2022-12-31T04:42:21.699Z,102182.13
2022-12-31T04:44:49.823Z,102189.59
2022-12-31T04:47:23.407Z,102185.29
2022-12-31T04:49:52.177Z,102187.43
2022-12-31T04:52:20.440Z,102190.92
2022-12-31T04:54:48.920Z,102194.49
2022-12-31T04:57:17.133Z,102200.01
2022-12-31T04:59:45.293Z,102201.19
2022-12-31T05:02:13.704Z,102201.70
2022-12-31T05:04:42.152Z,102211.31
2022-12-31T05:07:10.416Z,102220.16
2022-12-31T05:09:38.727Z,102221.46
2022-12-31T05:12:07.058Z,102218.91
2022-12-31T05:14:35.259Z,102215.75
2022-12-31T05:17:03.441Z,102214.30
2022-12-31T05:19:31.721Z,102207.98
2022-12-31T05:22:18.279Z,102209.27
2022-12-31T05:24:46.415Z,102207.02
2022-12-31T05:27:14.673Z,102207.75
2022-12-31T05:29:42.958Z,102211.83
2022-12-31T05:32:11.177Z,102212.44
2022-12-31T05:34:39.423Z,102218.32
2022-12-31T05:37:07.559Z,102221.63
2022-12-31T05:39:36.280Z,102217.10
2022-12-31T05:42:04.688Z,102217.95
2022-12-31T05:44:32.972Z,102217.33
2022-12-31T05:47:01.176Z,102229.79
2022-12-31T05:49:29.352Z,102232.21
2022-12-31T05:51:57.606Z,102230.07
2022-12-31T05:54:25.813Z,102229.64
2022-12-31T05:56:54.191Z,102226.83
2022-12-31T05:59:22.453Z,102233.59
2022-12-31T06:01:50.733Z,102234.73
2022-12-31T06:04:19.071Z,102236.45
2022-12-31T06:06:47.345Z,102236.95
2022-12-31T06:09:16.642Z,102240.86
2022-12-31T06:11:44.882Z,102244.72
2022-12-31T06:14:13.647Z,102251.98
2022-12-31T06:16:42.403Z,102251.48
2022-12-31T06:19:10.675Z,102261.80
2022-12-31T06:21:38.921Z,102271.54
2022-12-31T06:24:07.529Z,102275.54
2022-12-31T06:26:35.839Z,102279.55
2022-12-31T06:29:04.138Z,102282.66
2022-12-31T06:31:32.460Z,102283.43
2022-12-31T06:34:00.917Z,102285.21
2022-12-31T06:36:29.301Z,102284.27
2022-12-31T06:38:57.503Z,102288.06
2022-12-31T06:41:25.736Z,102294.04
2022-12-31T06:43:53.996Z,102292.69
2022-12-31T06:46:22.200Z,102296.04
2022-12-31T06:48:50.444Z,102296.50
2022-12-31T06:51:21.619Z,102305.08
2022-12-31T06:53:51.722Z,102315.57
2022-12-31T06:56:34.050Z,102315.25
2022-12-31T06:59:04.068Z,102315.08
2022-12-31T07:01:55.886Z,102317.43
2022-12-31T07:04:42.660Z,102319.77
2022-12-31T07:07:29.040Z,102316.60
2022-12-31T07:10:29.468Z,102315.92
2022-12-31T07:13:23.747Z,102323.39
2022-12-31T07:16:03.773Z,102322.85
2022-12-31T07:18:47.143Z,102326.41
2022-12-31T07:21:17.925Z,102330.08
2022-12-31T07:23:46.442Z,102332.96
2022-12-31T07:26:35.935Z,102333.52
2022-12-31T07:29:22.400Z,102333.16
2022-12-31T07:31:56.600Z,102339.06
2022-12-31T07:34:50.828Z,102339.20
2022-12-31T07:37:48.770Z,102333.30
2022-12-31T07:40:46.672Z,102332.61
2022-12-31T07:43:28.361Z,102328.20
2022-12-31T07:46:22.240Z,102332.65
2022-12-31T07:48:50.865Z,102324.36
2022-12-31T07:51:19.599Z,102332.17
2022-12-31T07:53:48.023Z,102337.18
2022-12-31T07:56:16.301Z,102335.55
2022-12-31T07:59:24.589Z,102342.34
2022-12-31T08:02:24.227Z,102345.88
2022-12-31T08:05:15.791Z,102342.73
2022-12-31T08:07:46.518Z,102345.08
2022-12-31T08:10:35.868Z,102342.66
2022-12-31T08:13:09.348Z,102341.56
2022-12-31T08:15:39.127Z,102343.26
2022-12-31T08:18:08.811Z,102344.64
2022-12-31T08:20:50.087Z,102346.66
2022-12-31T08:23:18.325Z,102346.37
2022-12-31T08:26:07.535Z,102344.86
2022-12-31T08:28:58.305Z,102345.71
2022-12-31T08:31:45.398Z,102342.52
2022-12-31T08:34:23.300Z,102343.91
2022-12-31T08:37:07.039Z,102339.76
2022-12-31T08:39:41.538Z,102339.45
2022-12-31T08:42:38.887Z,102338.13
2022-12-31T08:45:19.015Z,102332.02
2022-12-31T08:47:53.828Z,102323.94
2022-12-31T08:50:25.003Z,102328.64
2022-12-31T08:52:53.725Z,102327.48
2022-12-31T08:55:22.270Z,102324.78
2022-12-31T08:58:21.345Z,102320.64
2022-12-31T09:00:50.943Z,102315.56
2022-12-31T09:03:41.091Z,102312.77
2022-12-31T09:06:19.859Z,102305.45
2022-12-31T09:09:06.359Z,102307.98
2022-12-31T09:11:46.451Z,102307.89
2022-12-31T09:14:29.845Z,102309.02
2022-12-31T09:17:08.119Z,102304.71
2022-12-31T09:19:36.464Z,102304.81
2022-12-31T09:22:04.947Z,102300.78
2022-12-31T09:24:33.421Z,102299.23
2022-12-31T09:27:32.646Z,102294.66
2022-12-31T09:30:12.898Z,102296.33
2022-12-31T09:33:00.373Z,102292.29
2022-12-31T09:35:41.232Z,102292.66
2022-12-31T09:38:32.521Z,102290.14
2022-12-31T09:41:25.019Z,102282.83
2022-12-31T09:44:14.612Z,102286.27
2022-12-31T09:47:04.762Z,102281.28
2022-12-31T09:49:54.479Z,102281.82
2022-12-31T09:53:06.912Z,102274.64
2022-12-31T09:55:52.776Z,102271.31
2022-12-31T09:58:30.341Z,102271.33
2022-12-31T10:01:16.326Z,102268.93
2022-12-31T10:04:05.716Z,102264.38
2022-12-31T10:06:52.635Z,102257.75
2022-12-31T10:09:54.892Z,102250.89
2022-12-31T10:12:37.763Z,102250.38
2022-12-31T10:15:43.581Z,102248.85
2022-12-31T10:18:23.879Z,102253.95
2022-12-31T10:21:11.690Z,102249.91
2022-12-31T10:24:04.968Z,102244.60
2022-12-31T10:26:57.569Z,102242.36
2022-12-31T10:29:32.226Z,102239.28
2022-12-31T10:32:12.547Z,102230.90
2022-12-31T10:34:54.145Z,102224.65
2022-12-31T10:37:33.580Z,102217.98
2022-12-31T10:40:07.961Z,102215.11
2022-12-31T10:43:08.053Z,102208.95
2022-12-31T10:45:57.074Z,102209.80
2022-12-31T10:48:34.295Z,102209.23
2022-12-31T10:51:19.412Z,102204.80
2022-12-31T10:54:15.861Z,102207.84
2022-12-31T10:56:44.126Z,102203.36
2022-12-31T10:59:33.951Z,102204.39
2022-12-31T11:02:54.269Z,102201.00
2022-12-31T11:05:47.167Z,102192.86
2022-12-31T11:08:39.652Z,102186.65
2022-12-31T11:11:22.830Z,102187.77
2022-12-31T11:14:28.128Z,102182.21
2022-12-31T11:17:22.420Z,102174.93
2022-12-31T11:20:17.975Z,102171.17
2022-12-31T11:23:13.719Z,102170.09
2022-12-31T11:26:20.495Z,102168.27
2022-12-31T11:29:01.867Z,102172.98
2022-12-31T11:32:02.034Z,102180.94
2022-12-31T11:35:05.345Z,102181.54
2022-12-31T11:37:45.742Z,102183.55
2022-12-31T11:40:31.788Z,102185.98
2022-12-31T11:43:10.131Z,102188.71
2022-12-31T11:46:06.636Z,102190.59
2022-12-31T11:48:38.094Z,102189.85
2022-12-31T11:51:06.359Z,102190.35
2022-12-31T11:53:47.638Z,102194.94
2022-12-31T11:56:20.973Z,102192.39
2022-12-31T11:58:52.484Z,102193.99
2022-12-31T12:01:27.525Z,102199.62
2022-12-31T12:03:55.900Z,102197.00
2022-12-31T12:06:28.775Z,102199.80
2022-12-31T12:09:04.409Z,102195.52
2022-12-31T12:11:35.903Z,102190.15
2022-12-31T12:14:36.864Z,102184.55
2022-12-31T12:17:10.435Z,102177.96
2022-12-31T12:19:43.819Z,102178.09
2022-12-31T12:22:14.777Z,102178.14
2022-12-31T12:24:53.679Z,102178.95
2022-12-31T12:27:24.763Z,102179.25
2022-12-31T12:29:53.065Z,102179.73
2022-12-31T12:32:25.204Z,102181.77
2022-12-31T12:34:53.969Z,102183.55
2022-12-31T12:37:25.199Z,102185.14
2022-12-31T12:40:20.583Z,102186.86
2022-12-31T12:42:50.380Z,102183.89
2022-12-31T12:45:21.915Z,102191.83
2022-12-31T12:47:56.046Z,102192.26
2022-12-31T12:50:32.486Z,102190.25
2022-12-31T12:53:13.192Z,102194.05
2022-12-31T12:55:52.938Z,102192.72
2022-12-31T12:58:25.795Z,102198.98
2022-12-31T13:01:31.573Z,102203.09
2022-12-31T13:04:33.403Z,102208.06
2022-12-31T13:07:06.091Z,102209.16
2022-12-31T13:09:50.187Z,102212.14
2022-12-31T13:12:48.889Z,102214.57
2022-12-31T13:15:27.623Z,102208.10
2022-12-31T13:18:02.398Z,102209.21
2022-12-31T13:20:33.722Z,102214.52
2022-12-31T13:23:27.847Z,102214.18
2022-12-31T13:26:26.914Z,102215.17
2022-12-31T13:28:56.398Z,102210.71
2022-12-31T13:31:31.049Z,102214.89
2022-12-31T13:34:03.343Z,102218.48
2022-12-31T13:36:33.355Z,102218.44
2022-12-31T13:39:02.778Z,102217.89
2022-12-31T13:41:36.912Z,102213.12
2022-12-31T13:44:43.939Z,102210.88
2022-12-31T13:47:53.312Z,102189.80
2022-12-31T13:50:32.089Z,102218.52
2022-12-31T13:53:20.829Z,102225.08
2022-12-31T13:56:02.248Z,102231.92
2022-12-31T13:59:04.106Z,102243.80
2022-12-31T14:01:41.607Z,102245.23
2022-12-31T14:04:16.043Z,102250.94
2022-12-31T14:07:11.752Z,102253.58
2022-12-31T14:09:40.158Z,102251.17
2022-12-31T14:12:27.109Z,102247.39
2022-12-31T14:15:32.677Z,102242.70
2022-12-31T14:18:27.490Z,102242.67
2022-12-31T14:21:05.096Z,102245.89
2022-12-31T14:23:39.785Z,102246.44
2022-12-31T14:26:15.460Z,102244.64
2022-12-31T14:29:05.474Z,102248.76
2022-12-31T14:31:39.719Z,102254.02
2022-12-31T14:34:19.866Z,102256.15
2022-12-31T14:36:48.030Z,102258.30
2022-12-31T14:39:28.207Z,102260.94
2022-12-31T14:42:01.311Z,102260.30
2022-12-31T14:44:56.996Z,102256.74
2022-12-31T14:48:05.471Z,102256.66
2022-12-31T14:50:34.912Z,102258.69
2022-12-31T14:53:03.099Z,102256.86
2022-12-31T14:55:34.278Z,102255.15
2022-12-31T14:58:27.756Z,102256.14
2022-12-31T15:01:26.674Z,102264.05
2022-12-31T15:03:58.038Z,102261.89
2022-12-31T15:06:45.963Z,102258.66
2022-12-31T15:09:42.412Z,102267.53
2022-12-31T15:12:29.242Z,102269.48
2022-12-31T15:15:00.503Z,102271.13
2022-12-31T15:18:02.958Z,102273.14
2022-12-31T15:20:39.137Z,102278.76
2022-12-31T15:23:36.665Z,102277.90
2022-12-31T15:26:05.981Z,102272.16
2022-12-31T15:28:35.115Z,102262.20
2022-12-31T15:31:18.783Z,102268.38
2022-12-31T15:34:02.129Z,102269.35
2022-12-31T15:36:35.898Z,102273.81
2022-12-31T15:39:10.332Z,102275.54
2022-12-31T15:42:03.015Z,102279.55
2022-12-31T15:44:35.339Z,102279.75
2022-12-31T15:47:30.671Z,102282.04
2022-12-31T15:50:04.083Z,102282.23
2022-12-31T15:52:50.795Z,102284.23
2022-12-31T15:55:43.371Z,102288.48
2022-12-31T15:58:14.491Z,102283.34
2022-12-31T16:00:58.213Z,102284.67
2022-12-31T16:03:28.541Z,102283.98
2022-12-31T16:06:05.058Z,102287.73
2022-12-31T16:08:34.816Z,102290.27
2022-12-31T16:11:08.057Z,102289.11
2022-12-31T16:13:40.554Z,102291.00
2022-12-31T16:16:22.852Z,102289.84
2022-12-31T16:18:53.276Z,102291.97
2022-12-31T16:21:30.184Z,102292.95
2022-12-31T16:24:01.183Z,102292.78
2022-12-31T16:26:38.544Z,102294.60
2022-12-31T16:29:06.794Z,102295.98
2022-12-31T16:31:35.117Z,102295.41
2022-12-31T16:34:11.370Z,102292.57
2022-12-31T16:36:39.615Z,102291.29
2022-12-31T16:39:29.443Z,102290.22
2022-12-31T16:42:19.475Z,102287.58
2022-12-31T16:44:48.867Z,102293.39
2022-12-31T16:47:38.362Z,102295.42
2022-12-31T16:50:18.842Z,102297.30
2022-12-31T16:52:50.468Z,102297.02
2022-12-31T16:55:24.401Z,102295.98
2022-12-31T16:57:56.165Z,102295.17
2022-12-31T17:00:25.340Z,102298.33
2022-12-31T17:02:56.905Z,102296.85
2022-12-31T17:05:26.800Z,102299.06
2022-12-31T17:07:55.615Z,102292.38
2022-12-31T17:10:34.999Z,102290.45
2022-12-31T17:13:29.670Z,102292.79
2022-12-31T17:15:59.224Z,102295.59
2022-12-31T17:18:32.602Z,102290.16
2022-12-31T17:21:07.597Z,102287.95
